Airfield :
LOGIN :

Register | Disclaimer

   EN    FR    IT 

 










Legend :    VFR   Marginal VFR   IFR   Intensive IFR   Very Intensive IFR
Visi :
Ceiling :
>= 8 km
>= 3000ft
5 to 8 km
1000 to 3000 ft
1500m to 5 km
500 to 1000 ft
800 to 1500m
200 to 500 ft
< 800m
< 200 ft
Symbols :   Thunderstorms  Fog  Heavy snow  Heavy precipitations  Wind > 20 kt
SIGMETs :     Misc.  Thunderstorms  Icing  Turbulence  Mountain Waves  Volcanic Ashes







- Airport Elevation : 3 ft
- IATA code : LWR


EHLW - Leuuwarden Air Base

CURRENT METAR :
  • 130225Z AUTO 07006KT 010V100 9999 OVC021 01/00 Q1025 WHT

EXPIRED METARs :
  • 130155Z AUTO 08007KT 030V110 9999 OVC024 01/00 Q1025 WHT
  • 130125Z AUTO 09007KT 050V130 9999 FEW027 01/00 Q1025 BLU
  • 130055Z AUTO 09008KT 050V140 9999 BKN027 02/00 Q1025 BLU
  • 130025Z AUTO 09007KT 050V130 9999 FEW028 02/01 Q1026 BLU
  • 122355Z AUTO 09008KT 030V130 9999 OVC027 03/02 Q1026 BLU

TAF TAF EHLW
Valid from the 12 at 18:00 until the 13 at 06:00 UTC


121800Z 1218/1306 07007KT 9999 SCT030
PROB40
TEMPO 1222/1306 SCT007 BKN010
No reported NOTAMs for that airfield.



MET'MAP, your aeronautical weather chart ! - Copyright ORBIFLY December 2007 - Disclaimer

ORBIFLY MET'MAP TEAM :

Programming & Development : Alexandra Zaïnal
Concept & Development : Baudouin d'Aumeries
Co-Development & Prog : Marc-Olivier Méhu
Technical & hardware support : Manuel Goepfert

Contact : metmap@orbifly.com




SOURCES & CREDITS :

   NOAA